Time;durP1;ratioP1;P1;durP2;ratioP2;P2;SDS_P1;SDS_P2;PMS_P1;PMS_P2;Temp;Humidity;BMP_temperature;BMP_pressure;BME280_temperature;BME280_humidity;BME280_pressure;Samples;Min_cycle;Max_cycle;Signal;HPM_P1;HPM_P2
2024/03/21 00:00:34;;;;;;;7.97;5.32;;;;;;;14.25;39.92;101422.78;4947863;28;20046;-75
2024/03/21 00:03:00;;;;;;;10.45;6.45;;;;;;;14.23;40.46;101425.69;4969648;28;20069;-75
2024/03/21 00:05:27;;;;;;;10.55;6.22;;;;;;;14.22;40.03;101428.56;4971173;28;20026;-75
2024/03/21 00:07:53;;;;;;;9.35;6.40;;;;;;;14.20;39.86;101423.22;4954434;28;20097;-75
2024/03/21 00:10:21;;;;;;;9.18;5.68;;;;;;;14.19;40.21;101431.63;4962541;28;20031;-75
2024/03/21 00:12:47;;;;;;;9.57;6.22;;;;;;;14.17;39.83;101433.66;4952983;28;20042;-75
2024/03/21 00:15:17;;;;;;;9.60;6.47;;;;;;;14.16;40.56;101430.03;4956987;28;20045;-75
2024/03/21 00:17:44;;;;;;;8.85;6.03;;;;;;;14.14;39.94;101429.28;4956159;28;20510;-75
2024/03/21 00:20:12;;;;;;;10.13;6.38;;;;;;;14.12;40.52;101438.69;4950475;28;20042;-75
2024/03/21 00:22:40;;;;;;;8.73;6.05;;;;;;;14.11;39.90;101435.06;4941372;28;20054;-76
2024/03/21 00:25:08;;;;;;;10.18;5.43;;;;;;;14.10;40.22;101438.00;4952112;28;20083;-75
2024/03/21 00:27:35;;;;;;;9.50;5.68;;;;;;;14.09;40.47;101431.63;4954927;28;20039;-75
2024/03/21 00:30:02;;;;;;;9.07;5.97;;;;;;;14.06;40.28;101440.16;4967777;28;20486;-76
2024/03/21 00:32:30;;;;;;;8.77;5.57;;;;;;;14.06;40.06;101442.91;4969954;28;20038;-75
2024/03/21 00:34:57;;;;;;;8.38;6.05;;;;;;;14.02;40.51;101434.06;4943624;28;20568;-75
2024/03/21 00:37:23;;;;;;;9.60;6.18;;;;;;;14.00;40.49;101441.59;4947531;28;20047;-75
2024/03/21 00:39:50;;;;;;;9.07;6.18;;;;;;;13.98;40.47;101440.88;4949279;28;20517;-74
2024/03/21 00:42:16;;;;;;;9.23;5.50;;;;;;;13.96;40.53;101440.13;4971477;28;20038;-75
2024/03/21 00:44:43;;;;;;;7.63;5.60;;;;;;;13.94;40.16;101435.81;4952546;28;20047;-74
2024/03/21 00:47:09;;;;;;;7.13;5.05;;;;;;;13.92;40.58;101432.31;4971221;28;20042;-74
2024/03/21 00:49:37;;;;;;;8.10;5.55;;;;;;;13.93;40.14;101443.19;4966564;28;20097;-75
2024/03/21 00:52:05;;;;;;;8.70;5.55;;;;;;;13.89;40.58;101444.47;4961954;28;20098;-75
2024/03/21 00:54:32;;;;;;;10.15;6.45;;;;;;;13.86;40.62;101444.75;4967311;28;20573;-75
2024/03/21 00:56:58;;;;;;;10.10;5.90;;;;;;;13.84;40.28;101444.03;4971209;28;20046;-75
2024/03/21 00:59:25;;;;;;;8.43;5.78;;;;;;;13.82;40.49;101447.94;4946050;28;20035;-74
2024/03/21 01:01:51;;;;;;;9.75;5.90;;;;;;;13.80;40.18;101444.44;4952408;28;20069;-75
2024/03/21 01:04:18;;;;;;;8.63;6.10;;;;;;;13.78;40.71;101450.09;4964575;28;20038;-75
2024/03/21 01:06:45;;;;;;;10.15;6.15;;;;;;;13.77;40.58;101450.25;4957023;28;20514;-75
2024/03/21 01:09:14;;;;;;;8.90;6.38;;;;;;;13.73;40.04;101451.53;4970017;28;20038;-75
2024/03/21 01:11:40;;;;;;;10.25;6.03;;;;;;;13.70;40.67;101457.28;4969735;28;20034;-75
2024/03/21 01:14:07;;;;;;;11.48;7.60;;;;;;;13.67;40.16;101457.59;4965629;28;20046;-75
2024/03/21 01:16:34;;;;;;;8.43;7.00;;;;;;;13.63;40.61;101455.13;4962896;28;20577;-76
2024/03/21 01:19:00;;;;;;;9.68;6.82;;;;;;;13.60;40.34;101460.03;4972679;28;20213;-75
2024/03/21 01:21:29;;;;;;;8.90;6.63;;;;;;;13.58;40.34;101456.56;4957819;28;20039;-75
2024/03/21 01:23:57;;;;;;;9.75;6.38;;;;;;;13.55;40.77;101456.78;4973957;28;20038;-75
2024/03/21 01:26:23;;;;;;;11.20;6.88;;;;;;;13.51;40.58;101456.22;4972784;28;20093;-75
2024/03/21 01:28:50;;;;;;;11.18;7.05;;;;;;;13.48;40.97;101463.84;4972319;28;20050;-75
2024/03/21 01:31:20;;;;;;;10.13;6.55;;;;;;;13.47;40.65;101459.34;4974963;28;20062;-75
2024/03/21 01:33:49;;;;;;;8.30;6.05;;;;;;;13.47;41.07;101464.88;4964966;28;20054;-75
2024/03/21 01:36:15;;;;;;;9.02;5.72;;;;;;;13.46;40.87;101465.88;4967199;28;20042;-75
2024/03/21 01:38:42;;;;;;;7.25;6.05;;;;;;;13.45;40.85;101478.75;4973756;28;20030;-75
2024/03/21 01:41:09;;;;;;;10.60;7.13;;;;;;;13.47;40.82;101464.88;4972966;28;20039;-75
2024/03/21 01:43:39;;;;;;;9.25;6.47;;;;;;;13.46;41.30;101476.88;4971495;28;20057;-75
2024/03/21 01:46:17;;;;;;;10.07;6.97;;;;;;;13.46;40.83;101472.25;4957477;28;20039;-75
2024/03/21 01:48:45;;;;;;;9.43;7.40;;;;;;;13.44;40.62;101473.41;4966373;28;20042;-75
2024/03/21 01:51:13;;;;;;;10.02;7.43;;;;;;;13.45;41.05;101473.25;4964120;28;20569;-74
2024/03/21 01:53:41;;;;;;;9.88;7.28;;;;;;;13.45;40.59;101476.00;4971268;28;20042;-75
2024/03/21 01:56:09;;;;;;;10.15;6.53;;;;;;;13.45;40.85;101470.50;4971275;28;20035;-75
2024/03/21 01:58:36;;;;;;;10.10;6.95;;;;;;;13.44;40.81;101478.91;4972553;28;20058;-75
2024/03/21 02:01:24;;;;;;;10.00;6.85;;;;;;;13.42;41.78;101476.28;4960813;28;20046;-75
2024/03/21 02:03:52;;;;;;;10.32;6.80;;;;;;;13.42;40.98;101472.66;4965915;28;20041;-75
2024/03/21 02:06:19;;;;;;;9.15;6.80;;;;;;;13.42;41.00;101479.03;4970948;28;20046;-75
2024/03/21 02:08:46;;;;;;;10.48;6.25;;;;;;;13.40;41.40;101483.78;4969827;28;20293;-74
2024/03/21 02:11:14;;;;;;;9.38;6.47;;;;;;;13.40;40.94;101480.19;4972076;28;20058;-74
2024/03/21 02:13:41;;;;;;;8.82;6.40;;;;;;;13.38;41.53;101483.06;4955189;28;20217;-75
2024/03/21 02:16:07;;;;;;;8.75;6.38;;;;;;;13.39;41.60;101486.69;4955181;28;20390;-74
2024/03/21 02:18:34;;;;;;;8.10;5.95;;;;;;;13.38;41.15;101491.31;4952670;28;20458;-75
2024/03/21 02:21:04;;;;;;;8.32;6.22;;;;;;;13.39;41.76;101489.44;4967105;28;20038;-75
2024/03/21 02:23:32;;;;;;;9.13;6.50;;;;;;;13.39;41.67;101494.94;4962336;28;20038;-75
2024/03/21 02:25:59;;;;;;;8.68;6.38;;;;;;;13.38;41.26;101495.94;4971278;28;20038;-75
2024/03/21 02:28:25;;;;;;;8.02;5.93;;;;;;;13.38;41.63;101502.31;4968325;28;20422;-75
2024/03/21 02:30:54;;;;;;;11.88;6.70;;;;;;;13.39;41.35;101497.69;4953086;28;20054;-75
2024/03/21 02:33:20;;;;;;;9.13;6.25;;;;;;;13.38;41.37;101494.06;4966039;28;20089;-74
2024/03/21 02:35:47;;;;;;;9.80;6.25;;;;;;;13.38;41.30;101490.44;4972505;28;20046;-75
2024/03/21 02:38:13;;;;;;;8.75;6.00;;;;;;;13.37;41.51;101480.44;4969108;28;20044;-75
2024/03/21 02:40:41;;;;;;;8.68;5.82;;;;;;;13.38;41.37;101482.19;4969402;28;20214;-75
2024/03/21 02:43:08;;;;;;;10.32;6.60;;;;;;;13.35;41.47;101488.84;4942832;28;20054;-75
2024/03/21 02:45:34;;;;;;;9.38;6.07;;;;;;;13.34;41.47;101478.84;4952633;28;20034;-75
2024/03/21 02:48:01;;;;;;;10.75;6.20;;;;;;;13.33;41.89;101479.00;4969373;28;20432;-74
2024/03/21 02:50:27;;;;;;;9.55;5.97;;;;;;;13.31;42.07;101473.63;4968633;28;20051;-75
2024/03/21 02:52:54;;;;;;;8.57;6.13;;;;;;;13.31;41.77;101472.75;4970208;28;20911;-75
2024/03/21 02:55:20;;;;;;;9.05;5.95;;;;;;;13.30;42.05;101480.13;4952653;28;20046;-75
2024/03/21 02:57:48;;;;;;;9.98;6.47;;;;;;;13.31;41.70;101470.88;4953386;28;20640;-75
2024/03/21 03:00:15;;;;;;;8.57;5.70;;;;;;;13.29;41.78;101472.00;4972946;28;20042;-75
2024/03/21 03:02:42;;;;;;;8.40;5.57;;;;;;;13.28;42.00;101481.28;4970510;28;20419;-75
2024/03/21 03:05:10;;;;;;;8.70;5.70;;;;;;;13.28;41.74;101484.03;4955104;28;20038;-75
2024/03/21 03:07:37;;;;;;;8.65;5.78;;;;;;;13.26;42.04;101489.66;4966010;28;20035;-75
2024/03/21 03:10:04;;;;;;;7.13;5.38;;;;;;;13.27;42.18;101488.66;4971722;28;20434;-75
2024/03/21 03:12:31;;;;;;;10.02;6.10;;;;;;;13.26;41.67;101495.16;4971987;28;20049;-75
2024/03/21 03:14:59;;;;;;;8.35;5.68;;;;;;;13.28;42.18;101504.16;4965021;28;20045;-75
2024/03/21 03:17:26;;;;;;;8.95;5.72;;;;;;;13.24;41.74;101500.78;4969820;28;20088;-75
2024/03/21 03:19:52;;;;;;;8.30;5.28;;;;;;;13.25;42.23;101501.66;4951927;28;20039;-74
2024/03/21 03:22:19;;;;;;;9.05;5.70;;;;;;;13.24;42.46;101510.91;4967654;28;20050;-75
2024/03/21 03:24:44;;;;;;;8.63;6.05;;;;;;;13.24;42.08;101510.91;4949511;28;20038;-75
2024/03/21 03:27:11;;;;;;;8.82;5.55;;;;;;;13.24;42.32;101514.53;4968172;28;20418;-74
2024/03/21 03:29:37;;;;;;;9.55;6.65;;;;;;;13.24;41.77;101516.41;4971145;28;20030;-74
2024/03/21 03:32:07;;;;;;;8.52;6.05;;;;;;;13.25;41.87;101520.91;4968098;28;20073;-75
2024/03/21 03:37:19;;;;;;;11.07;6.93;;;;;;;13.21;42.27;101523.03;4949716;28;20050;-75
2024/03/21 03:39:46;;;;;;;10.45;6.47;;;;;;;13.21;42.16;101509.31;4952988;28;20050;-75
2024/03/21 03:42:13;;;;;;;10.75;6.72;;;;;;;13.21;42.16;101516.66;4955539;28;20405;-75
2024/03/21 03:44:40;;;;;;;9.00;6.40;;;;;;;13.20;42.13;101524.03;4956862;28;20035;-75
2024/03/21 03:47:08;;;;;;;10.57;7.25;;;;;;;13.23;42.53;101531.16;4969415;28;20034;-74
2024/03/21 03:49:34;;;;;;;10.88;7.07;;;;;;;13.19;42.67;101530.56;4951684;28;20580;-76
2024/03/21 03:52:01;;;;;;;10.18;7.07;;;;;;;13.19;42.49;101535.19;4944574;28;20054;-75
2024/03/21 03:54:28;;;;;;;10.85;7.38;;;;;;;13.21;42.78;101544.16;4966536;28;20046;-75
2024/03/21 03:56:55;;;;;;;10.88;7.30;;;;;;;13.18;42.81;101539.81;4953828;28;20098;-75
2024/03/21 03:59:21;;;;;;;11.00;7.30;;;;;;;13.20;42.44;101539.69;4968526;28;20090;-74
2024/03/21 04:01:48;;;;;;;9.73;7.18;;;;;;;13.18;42.64;101539.81;4963265;28;20038;-75
2024/03/21 04:04:15;;;;;;;11.10;7.07;;;;;;;13.21;42.76;101535.91;4967395;28;20078;-75
2024/03/21 04:06:42;;;;;;;10.30;7.25;;;;;;;13.18;42.70;101542.56;4970647;28;20031;-75
2024/03/21 04:09:08;;;;;;;10.85;8.23;;;;;;;13.18;42.47;101544.44;4961770;28;20061;-75
2024/03/21 04:11:35;;;;;;;11.48;8.57;;;;;;;13.18;42.63;101537.06;4953194;28;20410;-75
2024/03/21 04:14:01;;;;;;;10.32;7.53;;;;;;;13.18;42.83;101536.22;4946375;28;20089;-75
2024/03/21 04:16:28;;;;;;;12.57;8.57;;;;;;;13.18;42.52;101545.31;4954978;28;20030;-75
2024/03/21 04:18:54;;;;;;;10.85;8.68;;;;;;;13.17;42.91;101545.44;4954315;28;20062;-75
2024/03/21 04:21:22;;;;;;;12.55;9.45;;;;;;;13.18;42.55;101558.19;4947315;28;20038;-75
2024/03/21 04:23:48;;;;;;;13.43;10.15;;;;;;;13.16;42.96;101568.44;4952955;28;20050;-75
2024/03/21 04:26:15;;;;;;;15.02;10.75;;;;;;;13.14;42.73;101570.44;4967643;28;20043;-75
2024/03/21 04:28:40;;;;;;;14.93;11.65;;;;;;;13.14;43.24;101578.69;4968256;28;20046;-75
2024/03/21 04:31:07;;;;;;;15.95;13.10;;;;;;;13.13;43.00;101588.81;4969580;28;20530;-75
2024/03/21 04:33:33;;;;;;;18.52;13.55;;;;;;;13.12;43.09;101594.44;4950023;28;20582;-75
2024/03/21 04:36:01;;;;;;;16.52;12.65;;;;;;;13.12;43.76;101599.94;4966686;28;20042;-75
2024/03/21 04:38:29;;;;;;;17.42;12.77;;;;;;;13.14;43.29;101604.28;4966364;28;20101;-75
2024/03/21 04:40:56;;;;;;;16.80;13.43;;;;;;;13.12;43.77;101600.81;4962985;28;20054;-75
2024/03/21 04:43:23;;;;;;;18.38;13.43;;;;;;;13.12;43.40;101597.19;4963608;28;20047;-75
2024/03/21 04:45:49;;;;;;;18.98;13.43;;;;;;;13.13;44.11;101598.94;4960359;28;20046;-75
2024/03/21 04:48:16;;;;;;;17.92;13.45;;;;;;;13.13;43.95;101604.44;4956476;28;20081;-75
2024/03/21 04:50:43;;;;;;;17.70;13.10;;;;;;;13.14;43.60;101608.91;4946437;28;20078;-75
2024/03/21 04:53:09;;;;;;;19.52;13.70;;;;;;;13.15;44.17;101618.91;4948620;28;20038;-75
2024/03/21 04:55:38;;;;;;;20.83;14.50;;;;;;;13.15;44.37;101617.03;4967770;28;20150;-75
2024/03/21 04:58:04;;;;;;;18.92;13.75;;;;;;;13.14;43.68;101626.28;4970618;28;20104;-75
2024/03/21 05:00:31;;;;;;;20.27;14.05;;;;;;;13.15;44.25;101621.66;4965729;28;20042;-75
2024/03/21 05:02:57;;;;;;;19.17;13.85;;;;;;;13.15;43.68;101625.28;4963492;28;20050;-74
2024/03/21 05:05:24;;;;;;;19.40;13.70;;;;;;;13.15;44.09;101635.41;4950154;28;20039;-75
2024/03/21 05:07:51;;;;;;;19.55;13.93;;;;;;;13.16;44.23;101628.91;4964572;28;20462;-75
2024/03/21 05:10:18;;;;;;;17.95;13.65;;;;;;;13.13;43.60;101623.66;4967978;28;20081;-75
2024/03/21 05:12:45;;;;;;;19.92;13.63;;;;;;;13.15;43.46;101621.66;4968262;28;20046;-75
2024/03/21 05:15:12;;;;;;;20.38;13.80;;;;;;;13.13;43.73;101638.28;4959967;28;20093;-75
2024/03/21 05:17:38;;;;;;;19.15;13.98;;;;;;;13.11;43.70;101632.06;4970677;28;20037;-75
2024/03/21 05:20:06;;;;;;;20.30;14.00;;;;;;;13.11;43.96;101637.56;4966504;28;20034;-74
2024/03/21 05:22:32;;;;;;;19.92;13.55;;;;;;;13.09;43.72;101636.81;4954526;28;20089;-75
2024/03/21 05:24:59;;;;;;;18.85;13.32;;;;;;;13.08;44.14;101643.31;4969447;28;20038;-75
2024/03/21 05:27:25;;;;;;;19.58;13.63;;;;;;;13.08;44.00;101640.56;4957148;28;20047;-74
2024/03/21 05:29:53;;;;;;;19.60;13.98;;;;;;;13.07;43.64;101638.81;4967230;28;20105;-74
2024/03/21 05:32:19;;;;;;;22.55;14.93;;;;;;;13.05;43.76;101643.56;4953869;28;20045;-74
2024/03/21 05:34:46;;;;;;;20.80;13.88;;;;;;;13.03;43.71;101650.22;4949152;28;20626;-74
2024/03/21 05:37:12;;;;;;;17.95;13.20;;;;;;;13.01;44.10;101655.84;4966503;28;20050;-74
2024/03/21 05:39:39;;;;;;;21.48;15.00;;;;;;;13.00;43.63;101672.44;4962292;28;20061;-74
2024/03/21 05:42:05;;;;;;;21.55;14.43;;;;;;;12.99;44.03;101679.81;4967985;28;20290;-74
2024/03/21 05:44:32;;;;;;;19.48;13.98;;;;;;;12.98;43.84;101685.44;4947216;28;20415;-74
2024/03/21 05:46:59;;;;;;;18.30;12.77;;;;;;;12.99;43.85;101673.44;4972908;28;20034;-74
2024/03/21 05:49:29;;;;;;;20.58;14.05;;;;;;;12.97;44.43;101676.31;4967769;28;20046;-74
2024/03/21 05:51:55;;;;;;;20.08;14.00;;;;;;;12.96;43.83;101687.44;4971606;28;20137;-74
2024/03/21 05:54:22;;;;;;;18.83;14.13;;;;;;;12.94;44.34;101687.59;4970815;28;20407;-74
2024/03/21 05:56:48;;;;;;;18.42;13.25;;;;;;;12.94;43.87;101692.22;4971304;28;20088;-74
2024/03/21 05:59:15;;;;;;;21.08;14.88;;;;;;;12.93;43.97;101699.59;4970246;28;20050;-74
2024/03/21 06:01:41;;;;;;;22.45;13.90;;;;;;;12.92;44.35;101697.84;4954489;28;20425;-74
2024/03/21 06:04:09;;;;;;;18.60;13.75;;;;;;;12.94;44.15;101703.19;4964374;28;20039;-74
2024/03/21 06:06:35;;;;;;;18.77;13.48;;;;;;;12.91;44.41;101703.44;4984635;28;20046;-74
2024/03/21 06:09:05;;;;;;;19.30;12.95;;;;;;;12.92;44.43;101718.94;4977278;28;20039;-74
2024/03/21 06:11:31;;;;;;;19.55;13.57;;;;;;;12.92;44.66;101721.69;4971665;28;20050;-73
2024/03/21 06:13:58;;;;;;;20.27;13.57;;;;;;;12.91;44.66;101723.56;4962791;28;20544;-73
2024/03/21 06:16:24;;;;;;;18.48;12.98;;;;;;;12.92;44.60;101732.66;4954959;28;20047;-72
2024/03/21 06:18:51;;;;;;;18.92;13.15;;;;;;;12.92;44.55;101733.53;4948998;28;20535;-74
2024/03/21 06:21:18;;;;;;;18.95;13.57;;;;;;;12.94;44.71;101737.06;4972937;28;20050;-74
2024/03/21 06:23:45;;;;;;;18.30;12.35;;;;;;;12.92;44.48;101730.81;4969598;28;20042;-75
2024/03/21 06:26:11;;;;;;;19.63;12.73;;;;;;;12.92;44.28;101735.41;4952761;28;20035;-74
2024/03/21 06:28:37;;;;;;;19.55;13.88;;;;;;;12.92;44.36;101729.94;4975017;28;20045;-74
2024/03/21 06:31:03;;;;;;;17.75;12.57;;;;;;;12.92;44.74;101739.03;4970486;28;20043;-74
2024/03/21 06:33:30;;;;;;;17.98;12.73;;;;;;;12.93;44.81;101737.16;4985594;28;20042;-74
2024/03/21 06:35:56;;;;;;;19.17;12.43;;;;;;;12.92;44.26;101739.03;4971471;28;20050;-74
2024/03/21 06:38:24;;;;;;;19.25;13.70;;;;;;;12.94;44.54;101748.03;4970884;28;20031;-74
2024/03/21 06:40:50;;;;;;;21.65;13.32;;;;;;;12.92;44.69;101751.91;4972244;28;20051;-74
2024/03/21 06:43:18;;;;;;;21.55;13.90;;;;;;;12.93;44.65;101749.03;4978076;28;20038;-74
2024/03/21 06:45:52;;;;;;;19.92;13.82;;;;;;;12.92;44.79;101747.28;4977195;28;20078;-74
2024/03/21 06:48:19;;;;;;;18.80;12.48;;;;;;;12.93;44.24;101759.16;4988427;28;20053;-74
2024/03/21 06:50:45;;;;;;;17.15;12.73;;;;;;;12.92;44.91;101755.53;4957142;28;20058;-74
2024/03/21 06:53:12;;;;;;;18.40;12.48;;;;;;;12.92;44.80;101758.28;4973053;28;20038;-75
2024/03/21 06:55:39;;;;;;;19.77;12.57;;;;;;;12.93;44.39;101767.41;4979333;28;20046;-73
2024/03/21 06:58:06;;;;;;;17.98;12.63;;;;;;;12.92;44.94;101761.03;4976734;28;20029;-74
2024/03/21 07:00:32;;;;;;;19.30;13.77;;;;;;;12.92;44.67;101773.88;4973209;28;20058;-74
2024/03/21 07:02:59;;;;;;;19.55;13.15;;;;;;;12.91;44.40;101773.00;4954631;28;20108;-75
2024/03/21 07:05:25;;;;;;;18.70;13.45;;;;;;;12.90;44.71;101782.25;4970792;28;20109;-74
2024/03/21 07:07:54;;;;;;;20.33;14.20;;;;;;;12.90;44.32;101781.38;4971756;28;20042;-74
2024/03/21 07:10:20;;;;;;;17.35;13.13;;;;;;;12.89;44.38;101786.00;4957098;28;20043;-74
2024/03/21 07:12:48;;;;;;;17.05;12.70;;;;;;;12.89;44.57;101802.47;4951833;28;20089;-74
2024/03/21 07:15:16;;;;;;;21.50;14.75;;;;;;;12.87;44.40;101790.75;4971991;28;20039;-75
2024/03/21 07:17:42;;;;;;;19.80;14.70;;;;;;;12.87;44.68;101801.75;4967541;28;20046;-75
2024/03/21 07:20:11;;;;;;;20.52;14.52;;;;;;;12.87;44.56;101802.59;4970086;28;20065;-74
2024/03/21 07:22:37;;;;;;;22.52;14.88;;;;;;;12.85;44.63;101804.63;4967596;28;20493;-74
2024/03/21 07:25:06;;;;;;;18.25;13.65;;;;;;;12.83;44.81;101806.63;4970690;28;20553;-74
2024/03/21 07:27:32;;;;;;;16.92;13.45;;;;;;;12.83;44.80;101823.09;4969324;28;20483;-74
2024/03/21 07:30:00;;;;;;;18.25;13.18;;;;;;;12.83;44.80;101812.09;4969237;28;20162;-74
2024/03/21 07:32:26;;;;;;;23.02;13.98;;;;;;;12.82;44.46;101825.97;4951704;28;20042;-75
2024/03/21 07:34:53;;;;;;;19.52;13.85;;;;;;;12.80;44.33;101825.22;4968157;28;20039;-75
2024/03/21 07:37:19;;;;;;;19.98;14.32;;;;;;;12.79;44.14;101828.94;4947254;28;20078;-74
2024/03/21 07:39:48;;;;;;;18.52;13.27;;;;;;;12.80;44.53;101826.09;4964214;28;20042;-74
2024/03/21 07:42:14;;;;;;;17.05;12.55;;;;;;;12.77;44.21;101837.34;4957409;28;20043;-74
2024/03/21 07:44:41;;;;;;;16.98;12.13;;;;;;;12.77;44.49;101839.22;4951672;28;20052;-74
2024/03/21 07:47:08;;;;;;;18.30;12.60;;;;;;;12.77;44.31;101844.72;4951636;28;20039;-74
2024/03/21 07:49:35;;;;;;;17.40;12.23;;;;;;;12.75;44.14;101841.19;4949726;28;20050;-74
2024/03/21 07:52:01;;;;;;;18.80;12.90;;;;;;;12.73;43.97;101849.56;4969888;28;20047;-74
2024/03/21 07:54:29;;;;;;;16.88;12.20;;;;;;;12.72;44.34;101860.66;4963687;28;20050;-74
2024/03/21 07:56:56;;;;;;;17.13;12.15;;;;;;;12.71;44.09;101857.03;4930979;23;20097;-74
2024/03/21 07:59:23;;;;;;;17.17;12.63;;;;;;;12.70;44.35;101857.19;4913324;29;20048;-74
2024/03/21 08:01:49;;;;;;;14.05;11.30;;;;;;;12.70;44.36;101862.69;4911482;29;20098;-74
2024/03/21 08:04:17;;;;;;;15.00;10.52;;;;;;;12.69;44.43;101870.06;4910957;29;20660;-74
2024/03/21 08:06:43;;;;;;;16.60;11.82;;;;;;;12.68;43.98;101862.81;4911935;29;20046;-74
2024/03/21 08:09:10;;;;;;;16.77;11.25;;;;;;;12.67;44.28;101874.78;4911364;29;20447;-74
2024/03/21 08:11:36;;;;;;;17.58;12.43;;;;;;;12.69;44.39;101869.19;4910430;29;20044;-74
2024/03/21 08:14:03;;;;;;;16.70;12.40;;;;;;;12.69;44.39;101882.91;4912868;29;20051;-74
2024/03/21 08:16:29;;;;;;;15.60;11.95;;;;;;;12.68;43.94;101887.53;4910542;29;20040;-75
2024/03/21 08:18:56;;;;;;;19.08;13.05;;;;;;;12.69;44.16;101889.28;4911921;29;20059;-74
2024/03/21 08:21:23;;;;;;;17.33;12.85;;;;;;;12.72;44.26;101896.38;4897157;29;20035;-74
2024/03/21 08:23:50;;;;;;;16.38;11.85;;;;;;;12.71;43.64;101890.00;4909561;29;20056;-74
2024/03/21 08:26:17;;;;;;;15.02;11.63;;;;;;;12.72;43.72;101896.38;4900489;29;20044;-74
2024/03/21 08:28:43;;;;;;;16.08;11.85;;;;;;;12.73;44.14;101895.38;4896939;29;20039;-74
2024/03/21 08:31:09;;;;;;;13.38;10.40;;;;;;;12.73;43.45;101907.25;4906766;29;20475;-74
2024/03/21 08:33:36;;;;;;;12.98;9.27;;;;;;;12.73;43.93;101912.75;4907120;29;20095;-74
2024/03/21 08:36:03;;;;;;;12.07;8.75;;;;;;;12.76;43.91;101911.63;4912806;29;20059;-75
2024/03/21 08:38:31;;;;;;;11.43;7.72;;;;;;;12.77;43.59;101922.50;4911196;29;20499;-75
2024/03/21 08:40:57;;;;;;;9.88;7.25;;;;;;;12.77;43.93;101919.75;4894900;29;20052;-74
2024/03/21 08:43:24;;;;;;;8.88;6.63;;;;;;;12.77;43.30;101930.75;4911542;29;20071;-74
2024/03/21 08:45:53;;;;;;;8.50;6.07;;;;;;;12.79;43.65;101936.97;4894498;29;20042;-75
2024/03/21 08:48:20;;;;;;;8.70;5.97;;;;;;;12.78;43.09;101929.75;4913390;29;20039;-75
2024/03/21 08:50:47;;;;;;;8.95;5.85;;;;;;;12.80;42.84;101943.34;4911206;29;20543;-75
2024/03/21 08:53:14;;;;;;;8.98;5.82;;;;;;;12.80;42.82;101935.97;4909879;29;20543;-75
2024/03/21 08:55:42;;;;;;;7.20;5.20;;;;;;;12.81;42.96;101954.22;4914947;29;20043;-74
2024/03/21 08:58:09;;;;;;;8.98;5.40;;;;;;;12.79;43.15;101955.31;4911754;29;20044;-74
2024/03/21 09:00:37;;;;;;;6.95;4.60;;;;;;;12.80;43.18;101957.06;4911072;29;20476;-74
2024/03/21 09:03:06;;;;;;;6.95;4.60;;;;;;;12.82;42.69;101960.56;4893609;29;20052;-74
2024/03/21 09:05:32;;;;;;;6.50;4.43;;;;;;;12.83;42.72;101959.59;4893928;29;20270;-74
2024/03/21 09:07:58;;;;;;;6.43;4.20;;;;;;;12.83;42.95;101963.22;4901838;29;20099;-75
2024/03/21 09:10:25;;;;;;;6.18;4.10;;;;;;;12.84;43.45;101959.47;4911892;29;20039;-69
2024/03/21 09:12:53;;;;;;;6.60;4.05;;;;;;;12.90;43.45;101954.47;4907501;29;20070;-68
2024/03/21 09:15:19;;;;;;;6.25;4.10;;;;;;;12.93;43.54;101959.72;4893491;29;20043;-70
2024/03/21 09:17:46;;;;;;;7.55;4.20;;;;;;;12.98;44.06;101954.72;4909832;29;20439;-69
2024/03/21 09:20:12;;;;;;;6.97;4.03;;;;;;;13.05;44.33;101953.22;4909699;29;20043;-68
2024/03/21 09:22:40;;;;;;;6.10;4.03;;;;;;;13.13;43.84;101959.84;4908554;29;20039;-69
2024/03/21 09:25:06;;;;;;;6.45;3.65;;;;;;;13.22;43.95;101963.72;4906780;29;20500;-70
2024/03/21 09:27:33;;;;;;;7.60;3.63;;;;;;;13.31;44.41;101964.84;4908868;29;20044;-70
2024/03/21 09:30:01;;;;;;;6.15;3.67;;;;;;;13.39;43.67;101963.22;4911791;29;20052;-70
2024/03/21 09:32:28;;;;;;;5.47;3.50;;;;;;;13.46;43.74;101960.84;4908386;29;20047;-69
2024/03/21 09:34:54;;;;;;;5.20;3.20;;;;;;;13.54;43.84;101972.09;4907746;29;20408;-69
2024/03/21 09:37:23;;;;;;;5.70;3.20;;;;;;;13.61;43.68;101976.97;4906134;29;20040;-69
2024/03/21 09:39:49;;;;;;;5.10;2.90;;;;;;;13.69;43.79;101975.50;4913391;29;20061;-69
2024/03/21 09:42:17;;;;;;;4.70;2.80;;;;;;;13.78;43.22;101969.19;4910645;29;20123;-69
2024/03/21 09:44:48;;;;;;;6.18;2.97;;;;;;;13.85;43.50;101968.59;4912480;29;20051;-69
2024/03/21 09:47:19;;;;;;;4.40;2.65;;;;;;;13.92;43.75;101968.94;4912454;29;20514;-69
2024/03/21 09:49:46;;;;;;;4.57;2.63;;;;;;;13.97;43.52;101977.66;4913590;29;20052;-69
2024/03/21 09:52:13;;;;;;;3.80;2.42;;;;;;;14.04;42.81;101986.28;4913354;29;20113;-69
2024/03/21 09:54:40;;;;;;;3.40;2.03;;;;;;;14.10;43.04;101980.28;4912147;29;20058;-69
2024/03/21 09:57:12;;;;;;;4.20;2.67;;;;;;;14.16;42.43;101990.75;4912543;29;20036;-75
2024/03/21 09:59:38;;;;;;;4.45;2.65;;;;;;;14.18;41.91;101989.63;4920734;29;20253;-75
2024/03/21 10:02:08;;;;;;;3.95;2.50;;;;;;;14.22;41.65;101995.72;4911794;29;20578;-75
2024/03/21 10:04:42;;;;;;;4.63;2.55;;;;;;;14.25;40.94;101987.22;4915350;29;20467;-75
2024/03/21 10:07:18;;;;;;;3.78;2.50;;;;;;;14.25;40.28;101995.47;4898279;29;20051;-75
2024/03/21 10:09:51;;;;;;;4.93;3.65;;;;;;;14.23;40.21;101998.34;4912779;29;20039;-75
2024/03/21 10:12:18;;;;;;;5.10;3.97;;;;;;;14.20;40.93;102003.25;4917159;29;20039;-75
2024/03/21 10:14:44;;;;;;;5.50;4.00;;;;;;;14.18;41.01;102002.53;4909285;29;20044;-75
2024/03/21 10:17:11;;;;;;;4.60;3.10;;;;;;;14.18;40.88;102008.91;4914441;29;20047;-74
2024/03/21 10:19:37;;;;;;;4.15;3.10;;;;;;;14.15;40.99;102005.53;4901500;29;20044;-75
2024/03/21 10:22:06;;;;;;;4.15;2.65;;;;;;;14.14;40.33;102007.41;4914528;29;20128;-75
2024/03/21 10:24:32;;;;;;;4.00;2.58;;;;;;;14.10;40.42;102011.44;4912863;29;20043;-74
2024/03/21 10:26:59;;;;;;;4.60;2.90;;;;;;;14.08;40.51;102018.94;4915557;29;20047;-74
2024/03/21 10:29:26;;;;;;;5.38;3.05;;;;;;;14.07;40.88;102017.19;4914489;29;20040;-75
2024/03/21 10:31:55;;;;;;;5.00;2.47;;;;;;;14.07;40.49;102019.94;4912852;29;20047;-74
2024/03/21 10:34:23;;;;;;;3.50;2.50;;;;;;;14.07;40.36;102019.06;4914671;29;20044;-75
2024/03/21 10:36:50;;;;;;;4.65;2.88;;;;;;;14.05;40.87;102038.44;4897474;29;20052;-75
2024/03/21 10:39:17;;;;;;;3.80;2.60;;;;;;;14.08;40.23;102035.44;4911937;29;20044;-75
2024/03/21 10:41:45;;;;;;;4.20;2.47;;;;;;;14.08;40.80;102038.22;4913576;29;20566;-74
2024/03/21 10:44:14;;;;;;;2.47;1.90;;;;;;;14.09;40.58;102041.84;4914646;29;20031;-75
2024/03/21 10:46:41;;;;;;;3.17;2.13;;;;;;;14.07;40.55;102054.84;4907023;29;20092;-74
2024/03/21 10:49:14;;;;;;;3.35;2.25;;;;;;;14.10;40.12;102044.47;4899294;29;20044;-75
2024/03/21 10:51:45;;;;;;;3.28;2.38;;;;;;;14.08;40.21;102054.72;4911718;29;20063;-75
2024/03/21 10:54:13;;;;;;;3.35;2.42;;;;;;;14.09;40.22;102061.09;4907408;29;20055;-75
2024/03/21 10:56:42;;;;;;;3.15;2.10;;;;;;;14.09;40.35;102058.34;4895399;29;20054;-75
2024/03/21 10:59:14;;;;;;;3.28;2.15;;;;;;;14.10;39.88;102069.25;4893641;29;20040;-76
2024/03/21 11:01:44;;;;;;;4.35;2.55;;;;;;;14.06;40.00;102058.59;4896937;29;20411;-75
2024/03/21 11:04:11;;;;;;;3.35;2.17;;;;;;;14.07;39.78;102058.47;4907797;29;20058;-76
2024/03/21 11:06:40;;;;;;;4.03;2.55;;;;;;;14.05;40.27;102065.97;4914976;29;20909;-75
2024/03/21 11:09:07;;;;;;;3.13;2.25;;;;;;;14.05;40.00;102067.84;4909297;29;20414;-76
2024/03/21 11:11:35;;;;;;;4.50;2.67;;;;;;;14.04;40.20;102055.09;4900457;29;20050;-75
2024/03/21 11:14:03;;;;;;;3.42;2.55;;;;;;;14.05;39.74;102068.72;4909877;29;20047;-75
2024/03/21 11:16:31;;;;;;;4.15;2.60;;;;;;;14.02;40.18;102069.00;4910521;29;20522;-76
2024/03/21 11:18:58;;;;;;;4.13;2.63;;;;;;;14.03;39.92;102065.22;4897937;29;20082;-75